sensor_id;sensor_type;location;lat;lon;timestamp;pressure;altitude;pressure_sealevel;temperature;humidity
4576;BME280;2300;51.874;8.430;2023-02-07T00:00:40;103277.16;;;-2.45;95.66
4576;BME280;2300;51.874;8.430;2023-02-07T00:03:07;103291.13;;;-2.54;95.45
4576;BME280;2300;51.874;8.430;2023-02-07T00:05:34;103300.25;;;-2.41;96.26
4576;BME280;2300;51.874;8.430;2023-02-07T00:08:03;103282.81;;;-2.33;95.85
4576;BME280;2300;51.874;8.430;2023-02-07T00:10:30;103254.91;;;-2.48;95.61
4576;BME280;2300;51.874;8.430;2023-02-07T00:12:57;103274.63;;;-2.32;95.55
4576;BME280;2300;51.874;8.430;2023-02-07T00:15:23;103282.97;;;-2.37;95.67
4576;BME280;2300;51.874;8.430;2023-02-07T00:17:50;103275.41;;;-2.30;95.77
4576;BME280;2300;51.874;8.430;2023-02-07T00:20:16;103270.72;;;-2.26;95.47
4576;BME280;2300;51.874;8.430;2023-02-07T00:22:43;103278.66;;;-2.23;95.24
4576;BME280;2300;51.874;8.430;2023-02-07T00:25:11;103274.03;;;-2.21;95.32
4576;BME280;2300;51.874;8.430;2023-02-07T00:27:38;103269.22;;;-2.16;94.95
4576;BME280;2300;51.874;8.430;2023-02-07T00:30:05;103270.19;;;-2.17;94.74
4576;BME280;2300;51.874;8.430;2023-02-07T00:32:33;103261.16;;;-2.16;94.61
4576;BME280;2300;51.874;8.430;2023-02-07T00:35:00;103248.28;;;-2.11;94.36
4576;BME280;2300;51.874;8.430;2023-02-07T00:37:26;103248.84;;;-2.20;94.07
4576;BME280;2300;51.874;8.430;2023-02-07T00:39:53;103254.75;;;-2.14;93.97
4576;BME280;2300;51.874;8.430;2023-02-07T00:42:21;103248.41;;;-2.13;93.42
4576;BME280;2300;51.874;8.430;2023-02-07T00:44:47;103240.31;;;-2.13;93.67
4576;BME280;2300;51.874;8.430;2023-02-07T00:47:13;103238.38;;;-2.11;93.52
4576;BME280;2300;51.874;8.430;2023-02-07T00:49:40;103234.22;;;-2.16;93.64
4576;BME280;2300;51.874;8.430;2023-02-07T00:52:06;103235.03;;;-2.30;93.37
4576;BME280;2300;51.874;8.430;2023-02-07T00:54:33;103234.97;;;-2.28;93.57
4576;BME280;2300;51.874;8.430;2023-02-07T00:56:59;103227.03;;;-2.31;93.35
4576;BME280;2300;51.874;8.430;2023-02-07T00:59:27;103228.84;;;-2.32;92.94
4576;BME280;2300;51.874;8.430;2023-02-07T01:01:53;103238.59;;;-2.29;93.63
4576;BME280;2300;51.874;8.430;2023-02-07T01:04:20;103236.06;;;-2.32;93.56
4576;BME280;2300;51.874;8.430;2023-02-07T01:06:46;103222.13;;;-2.39;92.99
4576;BME280;2300;51.874;8.430;2023-02-07T01:09:13;103230.06;;;-2.38;92.97
4576;BME280;2300;51.874;8.430;2023-02-07T01:11:39;103222.28;;;-2.42;92.58
4576;BME280;2300;51.874;8.430;2023-02-07T01:14:05;103219.50;;;-2.41;93.10
4576;BME280;2300;51.874;8.430;2023-02-07T01:16:35;103224.19;;;-2.44;92.61
4576;BME280;2300;51.874;8.430;2023-02-07T01:19:03;103224.09;;;-2.43;93.20
4576;BME280;2300;51.874;8.430;2023-02-07T01:21:30;103217.06;;;-2.45;92.71
4576;BME280;2300;51.874;8.430;2023-02-07T01:23:56;103222.59;;;-2.32;92.66
4576;BME280;2300;51.874;8.430;2023-02-07T01:26:23;103214.78;;;-2.21;92.72
4576;BME280;2300;51.874;8.430;2023-02-07T01:28:50;103223.19;;;-2.27;92.43
4576;BME280;2300;51.874;8.430;2023-02-07T01:31:16;103228.50;;;-2.26;92.08
4576;BME280;2300;51.874;8.430;2023-02-07T01:33:44;103230.88;;;-2.36;91.77
4576;BME280;2300;51.874;8.430;2023-02-07T01:36:12;103229.41;;;-2.41;91.63
4576;BME280;2300;51.874;8.430;2023-02-07T01:38:39;103220.72;;;-2.46;91.47
4576;BME280;2300;51.874;8.430;2023-02-07T01:41:07;103214.81;;;-2.53;91.71
4576;BME280;2300;51.874;8.430;2023-02-07T01:43:34;103224.09;;;-2.43;92.01
4576;BME280;2300;51.874;8.430;2023-02-07T01:46:00;103223.66;;;-2.35;92.23
4576;BME280;2300;51.874;8.430;2023-02-07T01:48:28;103229.13;;;-2.37;91.89
4576;BME280;2300;51.874;8.430;2023-02-07T01:50:59;103232.16;;;-2.43;91.74
4576;BME280;2300;51.874;8.430;2023-02-07T01:53:29;103235.13;;;-2.31;91.95
4576;BME280;2300;51.874;8.430;2023-02-07T01:56:00;103231.28;;;-2.27;91.87
4576;BME280;2300;51.874;8.430;2023-02-07T01:58:30;103223.13;;;-2.26;91.34
4576;BME280;2300;51.874;8.430;2023-02-07T02:00:58;103224.59;;;-2.20;91.52
4576;BME280;2300;51.874;8.430;2023-02-07T02:03:26;103228.59;;;-2.27;91.09
4576;BME280;2300;51.874;8.430;2023-02-07T02:05:53;103227.91;;;-2.31;90.79
4576;BME280;2300;51.874;8.430;2023-02-07T02:08:23;103239.28;;;-2.42;90.37
4576;BME280;2300;51.874;8.430;2023-02-07T02:11:01;103242.78;;;-2.55;90.45
4576;BME280;2300;51.874;8.430;2023-02-07T02:13:39;103238.06;;;-2.67;91.30
4576;BME280;2300;51.874;8.430;2023-02-07T02:16:22;103230.06;;;-2.53;91.53
4576;BME280;2300;51.874;8.430;2023-02-07T02:22:11;103215.66;;;-2.37;91.70
4576;BME280;2300;51.874;8.430;2023-02-07T02:25:02;103193.13;;;-2.50;91.11
4576;BME280;2300;51.874;8.430;2023-02-07T02:27:59;103207.44;;;-2.33;91.16
4576;BME280;2300;51.874;8.430;2023-02-07T02:30:42;103208.91;;;-2.44;91.08
4576;BME280;2300;51.874;8.430;2023-02-07T02:33:24;103210.03;;;-2.48;90.86
4576;BME280;2300;51.874;8.430;2023-02-07T02:35:56;103199.78;;;-2.57;90.31
4576;BME280;2300;51.874;8.430;2023-02-07T02:38:33;103213.25;;;-2.57;91.05
4576;BME280;2300;51.874;8.430;2023-02-07T02:41:04;103207.72;;;-2.54;91.00
4576;BME280;2300;51.874;8.430;2023-02-07T02:43:37;103199.38;;;-2.49;91.18
4576;BME280;2300;51.874;8.430;2023-02-07T02:46:08;103203.88;;;-2.50;90.96
4576;BME280;2300;51.874;8.430;2023-02-07T02:48:39;103217.41;;;-2.51;91.01
4576;BME280;2300;51.874;8.430;2023-02-07T02:51:07;103214.66;;;-2.50;90.92
4576;BME280;2300;51.874;8.430;2023-02-07T02:53:33;103208.13;;;-2.46;91.11
4576;BME280;2300;51.874;8.430;2023-02-07T02:56:12;103203.34;;;-2.41;91.46
4576;BME280;2300;51.874;8.430;2023-02-07T02:58:53;103200.38;;;-2.36;90.89
4576;BME280;2300;51.874;8.430;2023-02-07T03:01:27;103197.44;;;-2.31;90.56
4576;BME280;2300;51.874;8.430;2023-02-07T03:04:12;103204.75;;;-2.33;90.36
4576;BME280;2300;51.874;8.430;2023-02-07T03:06:52;103212.91;;;-2.35;89.79
4576;BME280;2300;51.874;8.430;2023-02-07T03:09:32;103203.53;;;-2.44;89.95
4576;BME280;2300;51.874;8.430;2023-02-07T03:12:07;103219.09;;;-2.49;89.95
4576;BME280;2300;51.874;8.430;2023-02-07T03:14:42;103205.63;;;-2.49;89.92
4576;BME280;2300;51.874;8.430;2023-02-07T03:17:17;103195.09;;;-2.53;90.02
4576;BME280;2300;51.874;8.430;2023-02-07T03:19:52;103205.78;;;-2.52;89.99
4576;BME280;2300;51.874;8.430;2023-02-07T03:22:23;103212.91;;;-2.51;89.91
4576;BME280;2300;51.874;8.430;2023-02-07T03:24:53;103208.47;;;-2.52;89.80
4576;BME280;2300;51.874;8.430;2023-02-07T03:27:22;103201.69;;;-2.59;89.95
4576;BME280;2300;51.874;8.430;2023-02-07T03:29:52;103214.38;;;-2.45;89.89
4576;BME280;2300;51.874;8.430;2023-02-07T03:32:22;103204.56;;;-2.46;90.03
4576;BME280;2300;51.874;8.430;2023-02-07T03:34:55;103209.75;;;-2.43;89.72
4576;BME280;2300;51.874;8.430;2023-02-07T03:37:25;103205.25;;;-2.43;89.49
4576;BME280;2300;51.874;8.430;2023-02-07T03:39:53;103200.25;;;-2.49;89.47
4576;BME280;2300;51.874;8.430;2023-02-07T03:42:23;103213.84;;;-2.52;89.27
4576;BME280;2300;51.874;8.430;2023-02-07T03:44:53;103208.66;;;-2.55;89.45
4576;BME280;2300;51.874;8.430;2023-02-07T03:47:21;103207.19;;;-2.60;88.98
4576;BME280;2300;51.874;8.430;2023-02-07T03:49:48;103200.06;;;-2.61;89.36
4576;BME280;2300;51.874;8.430;2023-02-07T03:52:16;103200.94;;;-2.61;89.62
4576;BME280;2300;51.874;8.430;2023-02-07T03:54:42;103210.13;;;-2.49;89.26
4576;BME280;2300;51.874;8.430;2023-02-07T03:57:09;103195.97;;;-2.53;88.93
4576;BME280;2300;51.874;8.430;2023-02-07T03:59:35;103200.25;;;-2.49;89.11
4576;BME280;2300;51.874;8.430;2023-02-07T04:02:02;103209.25;;;-2.50;89.07
4576;BME280;2300;51.874;8.430;2023-02-07T04:04:29;103189.97;;;-2.58;88.70
4576;BME280;2300;51.874;8.430;2023-02-07T04:06:56;103193.97;;;-2.49;88.92
4576;BME280;2300;51.874;8.430;2023-02-07T04:09:23;103189.81;;;-2.55;88.68
4576;BME280;2300;51.874;8.430;2023-02-07T04:11:50;103192.31;;;-2.52;89.29
4576;BME280;2300;51.874;8.430;2023-02-07T04:14:18;103196.16;;;-2.56;88.72
4576;BME280;2300;51.874;8.430;2023-02-07T04:16:45;103195.53;;;-2.61;88.89
4576;BME280;2300;51.874;8.430;2023-02-07T04:19:12;103185.13;;;-2.67;88.80
4576;BME280;2300;51.874;8.430;2023-02-07T04:21:38;103150.22;;;-2.84;89.24
4576;BME280;2300;51.874;8.430;2023-02-07T04:24:05;103185.31;;;-2.70;89.18
4576;BME280;2300;51.874;8.430;2023-02-07T04:26:33;103182.69;;;-2.71;89.63
4576;BME280;2300;51.874;8.430;2023-02-07T04:28:59;103193.81;;;-2.78;89.39
4576;BME280;2300;51.874;8.430;2023-02-07T04:31:26;103195.09;;;-2.85;89.56
4576;BME280;2300;51.874;8.430;2023-02-07T04:33:52;103183.81;;;-2.91;90.16
4576;BME280;2300;51.874;8.430;2023-02-07T04:36:19;103201.44;;;-2.86;89.66
4576;BME280;2300;51.874;8.430;2023-02-07T04:38:46;103177.03;;;-2.98;89.65
4576;BME280;2300;51.874;8.430;2023-02-07T04:41:13;103186.66;;;-2.94;89.61
4576;BME280;2300;51.874;8.430;2023-02-07T04:43:41;103206.47;;;-2.95;89.52
4576;BME280;2300;51.874;8.430;2023-02-07T04:46:07;103198.72;;;-3.01;89.47
4576;BME280;2300;51.874;8.430;2023-02-07T04:48:34;103199.50;;;-2.99;90.05
4576;BME280;2300;51.874;8.430;2023-02-07T04:51:01;103205.66;;;-2.97;89.95
4576;BME280;2300;51.874;8.430;2023-02-07T04:53:28;103203.84;;;-2.97;90.36
4576;BME280;2300;51.874;8.430;2023-02-07T04:55:54;103207.69;;;-2.85;90.15
4576;BME280;2300;51.874;8.430;2023-02-07T04:58:21;103208.38;;;-2.82;90.14
4576;BME280;2300;51.874;8.430;2023-02-07T05:00:49;103202.75;;;-2.77;90.38
4576;BME280;2300;51.874;8.430;2023-02-07T05:03:16;103199.44;;;-2.82;90.06
4576;BME280;2300;51.874;8.430;2023-02-07T05:05:43;103203.88;;;-2.81;90.47
4576;BME280;2300;51.874;8.430;2023-02-07T05:08:11;103194.59;;;-2.75;90.68
4576;BME280;2300;51.874;8.430;2023-02-07T05:10:38;103177.84;;;-2.81;90.70
4576;BME280;2300;51.874;8.430;2023-02-07T05:13:05;103195.88;;;-2.67;90.81
4576;BME280;2300;51.874;8.430;2023-02-07T05:15:32;103192.94;;;-2.78;90.52
4576;BME280;2300;51.874;8.430;2023-02-07T05:17:59;103199.72;;;-2.71;90.34
4576;BME280;2300;51.874;8.430;2023-02-07T05:20:26;103171.84;;;-2.86;90.48
4576;BME280;2300;51.874;8.430;2023-02-07T05:22:53;103193.47;;;-2.71;90.66
4576;BME280;2300;51.874;8.430;2023-02-07T05:25:19;103190.16;;;-2.76;90.82
4576;BME280;2300;51.874;8.430;2023-02-07T05:27:46;103191.44;;;-2.68;90.82
4576;BME280;2300;51.874;8.430;2023-02-07T05:30:13;103196.16;;;-2.71;90.96
4576;BME280;2300;51.874;8.430;2023-02-07T05:32:39;103187.75;;;-2.65;90.53
4576;BME280;2300;51.874;8.430;2023-02-07T05:35:25;103187.03;;;-2.69;90.71
4576;BME280;2300;51.874;8.430;2023-02-07T05:37:51;103192.25;;;-2.66;90.80
4576;BME280;2300;51.874;8.430;2023-02-07T05:40:18;103195.47;;;-2.59;90.97
4576;BME280;2300;51.874;8.430;2023-02-07T05:42:45;103196.22;;;-2.57;90.72
4576;BME280;2300;51.874;8.430;2023-02-07T05:45:11;103178.19;;;-2.71;90.63
4576;BME280;2300;51.874;8.430;2023-02-07T05:47:38;103197.38;;;-2.61;90.57
4576;BME280;2300;51.874;8.430;2023-02-07T05:50:05;103206.38;;;-2.62;90.53
4576;BME280;2300;51.874;8.430;2023-02-07T05:52:33;103199.38;;;-2.65;90.70
4576;BME280;2300;51.874;8.430;2023-02-07T05:55:00;103209.00;;;-2.61;90.64
4576;BME280;2300;51.874;8.430;2023-02-07T05:57:26;103214.53;;;-2.64;90.95
4576;BME280;2300;51.874;8.430;2023-02-07T05:59:53;103207.53;;;-2.66;90.75
4576;BME280;2300;51.874;8.430;2023-02-07T06:02:19;103209.94;;;-2.62;90.43
4576;BME280;2300;51.874;8.430;2023-02-07T06:04:46;103209.94;;;-2.62;90.68
4576;BME280;2300;51.874;8.430;2023-02-07T06:07:13;103214.47;;;-2.62;90.34
4576;BME280;2300;51.874;8.430;2023-02-07T06:09:40;103225.91;;;-2.59;90.10
4576;BME280;2300;51.874;8.430;2023-02-07T06:12:07;103233.03;;;-2.58;89.87
4576;BME280;2300;51.874;8.430;2023-02-07T06:14:34;103211.75;;;-2.78;89.48
4576;BME280;2300;51.874;8.430;2023-02-07T06:17:00;103234.50;;;-2.68;89.91
4576;BME280;2300;51.874;8.430;2023-02-07T06:19:27;103251.97;;;-2.59;89.79
4576;BME280;2300;51.874;8.430;2023-02-07T06:21:53;103248.50;;;-2.61;89.96
4576;BME280;2300;51.874;8.430;2023-02-07T06:24:20;103246.66;;;-2.76;89.71
4576;BME280;2300;51.874;8.430;2023-02-07T06:26:48;103240.84;;;-2.69;89.72
4576;BME280;2300;51.874;8.430;2023-02-07T06:29:14;103255.41;;;-2.73;89.83
4576;BME280;2300;51.874;8.430;2023-02-07T06:31:41;103259.84;;;-2.72;90.16
4576;BME280;2300;51.874;8.430;2023-02-07T06:34:07;103255.41;;;-2.73;89.90
4576;BME280;2300;51.874;8.430;2023-02-07T06:36:34;103257.97;;;-2.70;90.15
4576;BME280;2300;51.874;8.430;2023-02-07T06:39:01;103255.16;;;-2.68;90.07
4576;BME280;2300;51.874;8.430;2023-02-07T06:41:27;103263.34;;;-2.70;89.77
4576;BME280;2300;51.874;8.430;2023-02-07T06:43:55;103260.72;;;-2.71;89.86
4576;BME280;2300;51.874;8.430;2023-02-07T06:46:22;103261.59;;;-2.71;90.07
4576;BME280;2300;51.874;8.430;2023-02-07T06:48:48;103244.38;;;-2.84;90.07
4576;BME280;2300;51.874;8.430;2023-02-07T06:51:15;103255.94;;;-2.82;90.00
4576;BME280;2300;51.874;8.430;2023-02-07T06:53:41;103256.13;;;-2.85;90.07
4576;BME280;2300;51.874;8.430;2023-02-07T06:56:08;103251.06;;;-2.91;90.69
4576;BME280;2300;51.874;8.430;2023-02-07T06:58:34;103264.94;;;-2.83;90.27
4576;BME280;2300;51.874;8.430;2023-02-07T07:01:03;103268.75;;;-2.87;90.11
4576;BME280;2300;51.874;8.430;2023-02-07T07:03:48;103268.59;;;-2.84;90.11
4576;BME280;2300;51.874;8.430;2023-02-07T07:06:16;103274.06;;;-2.86;90.07
4576;BME280;2300;51.874;8.430;2023-02-07T07:08:42;103272.25;;;-2.85;90.49
4576;BME280;2300;51.874;8.430;2023-02-07T07:11:09;103277.03;;;-2.90;90.45
4576;BME280;2300;51.874;8.430;2023-02-07T07:13:35;103275.72;;;-2.83;90.47
4576;BME280;2300;51.874;8.430;2023-02-07T07:16:04;103274.84;;;-2.84;90.74
4576;BME280;2300;51.874;8.430;2023-02-07T07:18:30;103269.72;;;-2.88;90.00
4576;BME280;2300;51.874;8.430;2023-02-07T07:20:57;103281.72;;;-2.78;89.99
4576;BME280;2300;51.874;8.430;2023-02-07T07:23:23;103277.19;;;-2.78;89.87
4576;BME280;2300;51.874;8.430;2023-02-07T07:25:50;103276.94;;;-2.73;89.57
4576;BME280;2300;51.874;8.430;2023-02-07T07:28:16;103283.03;;;-2.69;89.56
4576;BME280;2300;51.874;8.430;2023-02-07T07:30:43;103277.81;;;-2.72;89.67
4576;BME280;2300;51.874;8.430;2023-02-07T07:33:11;103292.56;;;-2.64;89.87
4576;BME280;2300;51.874;8.430;2023-02-07T07:35:38;103275.81;;;-2.69;89.63
4576;BME280;2300;51.874;8.430;2023-02-07T07:38:05;103292.41;;;-2.61;89.62
4576;BME280;2300;51.874;8.430;2023-02-07T07:40:32;103286.25;;;-2.63;89.71
4576;BME280;2300;51.874;8.430;2023-02-07T07:42:59;103264.63;;;-2.77;89.94
4576;BME280;2300;51.874;8.430;2023-02-07T07:45:25;103286.44;;;-2.50;89.79
4576;BME280;2300;51.874;8.430;2023-02-07T07:47:52;103286.84;;;-2.58;89.88
4576;BME280;2300;51.874;8.430;2023-02-07T07:50:20;103291.75;;;-2.49;89.61
4576;BME280;2300;51.874;8.430;2023-02-07T07:52:47;103280.34;;;-2.38;89.69
4576;BME280;2300;51.874;8.430;2023-02-07T07:55:14;103284.97;;;-2.40;89.58
4576;BME280;2300;51.874;8.430;2023-02-07T07:57:40;103283.16;;;-2.40;89.27
4576;BME280;2300;51.874;8.430;2023-02-07T08:00:09;103301.66;;;-2.33;89.54
4576;BME280;2300;51.874;8.430;2023-02-07T08:02:35;103289.16;;;-2.34;88.96
4576;BME280;2300;51.874;8.430;2023-02-07T08:05:02;103303.91;;;-2.26;89.76
4576;BME280;2300;51.874;8.430;2023-02-07T08:07:30;103311.72;;;-2.21;89.95
4576;BME280;2300;51.874;8.430;2023-02-07T08:09:56;103314.84;;;-2.13;89.96
4576;BME280;2300;51.874;8.430;2023-02-07T08:12:26;103312.94;;;-2.11;89.07
4576;BME280;2300;51.874;8.430;2023-02-07T08:14:52;103309.13;;;-2.07;89.53
4576;BME280;2300;51.874;8.430;2023-02-07T08:17:19;103305.72;;;-1.95;89.19
4576;BME280;2300;51.874;8.430;2023-02-07T08:19:45;103313.44;;;-1.89;88.96
4576;BME280;2300;51.874;8.430;2023-02-07T08:22:12;103310.56;;;-1.86;88.67
4576;BME280;2300;51.874;8.430;2023-02-07T08:24:46;103294.94;;;-1.95;88.89
4576;BME280;2300;51.874;8.430;2023-02-07T08:27:12;103303.34;;;-1.85;88.79
4576;BME280;2300;51.874;8.430;2023-02-07T08:29:47;103303.88;;;-1.79;88.75
4576;BME280;2300;51.874;8.430;2023-02-07T08:32:13;103300.03;;;-1.75;88.28
4576;BME280;2300;51.874;8.430;2023-02-07T08:34:40;103298.72;;;-1.68;88.17
4576;BME280;2300;51.874;8.430;2023-02-07T08:37:13;103300.59;;;-1.54;88.58
4576;BME280;2300;51.874;8.430;2023-02-07T08:39:40;103303.47;;;-1.57;88.76
4576;BME280;2300;51.874;8.430;2023-02-07T08:42:18;103291.53;;;-1.53;88.73
4576;BME280;2300;51.874;8.430;2023-02-07T08:44:46;103293.19;;;-1.51;87.91
4576;BME280;2300;51.874;8.430;2023-02-07T08:47:15;103287.41;;;-1.44;87.97
4576;BME280;2300;51.874;8.430;2023-02-07T08:49:41;103292.09;;;-1.32;88.11
4576;BME280;2300;51.874;8.430;2023-02-07T08:52:08;103306.56;;;-1.19;88.01
4576;BME280;2300;51.874;8.430;2023-02-07T08:54:35;103300.78;;;-1.13;87.89
4576;BME280;2300;51.874;8.430;2023-02-07T08:57:02;103306.59;;;-1.05;86.75
4576;BME280;2300;51.874;8.430;2023-02-07T08:59:29;103300.81;;;-0.99;86.94
4576;BME280;2300;51.874;8.430;2023-02-07T09:01:57;103274.78;;;-1.00;86.95
4576;BME280;2300;51.874;8.430;2023-02-07T09:04:23;103298.41;;;-0.75;86.52
4576;BME280;2300;51.874;8.430;2023-02-07T09:06:51;103283.09;;;-0.75;86.29
4576;BME280;2300;51.874;8.430;2023-02-07T09:09:17;103279.59;;;-0.48;85.50
4576;BME280;2300;51.874;8.430;2023-02-07T09:11:44;103297.72;;;-0.50;84.92
4576;BME280;2300;51.874;8.430;2023-02-07T09:14:10;103294.81;;;-0.33;85.47
4576;BME280;2300;51.874;8.430;2023-02-07T09:16:38;103281.38;;;-0.20;84.35
4576;BME280;2300;51.874;8.430;2023-02-07T09:19:16;103282.22;;;-0.20;84.25
4576;BME280;2300;51.874;8.430;2023-02-07T09:21:43;103275.69;;;-0.16;84.47
4576;BME280;2300;51.874;8.430;2023-02-07T09:24:10;103277.00;;;-0.09;84.72
4576;BME280;2300;51.874;8.430;2023-02-07T09:26:37;103264.00;;;0.10;84.74
4576;BME280;2300;51.874;8.430;2023-02-07T09:29:04;103271.31;;;0.35;84.57
4576;BME280;2300;51.874;8.430;2023-02-07T09:31:32;103260.03;;;0.29;83.61
4576;BME280;2300;51.874;8.430;2023-02-07T09:34:00;103268.44;;;0.51;82.78
4576;BME280;2300;51.874;8.430;2023-02-07T09:36:30;103255.09;;;0.48;82.81
4576;BME280;2300;51.874;8.430;2023-02-07T09:38:58;103257.19;;;0.70;82.70
4576;BME280;2300;51.874;8.430;2023-02-07T09:41:28;103250.19;;;0.92;82.43
4576;BME280;2300;51.874;8.430;2023-02-07T09:44:04;103275.94;;;1.11;81.53
4576;BME280;2300;51.874;8.430;2023-02-07T09:46:42;103253.22;;;1.13;80.59
4576;BME280;2300;51.874;8.430;2023-02-07T09:49:26;103273.97;;;1.25;80.36
4576;BME280;2300;51.874;8.430;2023-02-07T09:51:56;103274.16;;;1.47;80.07
4576;BME280;2300;51.874;8.430;2023-02-07T09:54:26;103270.34;;;1.63;80.30
4576;BME280;2300;51.874;8.430;2023-02-07T09:56:58;103275.66;;;1.64;78.73
4576;BME280;2300;51.874;8.430;2023-02-07T09:59:30;103268.84;;;1.82;78.85
4576;BME280;2300;51.874;8.430;2023-02-07T10:02:09;103271.47;;;1.84;78.37
4576;BME280;2300;51.874;8.430;2023-02-07T10:04:46;103272.75;;;1.91;78.42
4576;BME280;2300;51.874;8.430;2023-02-07T10:07:13;103289.09;;;2.02;77.45
4576;BME280;2300;51.874;8.430;2023-02-07T10:09:41;103282.03;;;2.00;77.78
4576;BME280;2300;51.874;8.430;2023-02-07T10:12:17;103289.69;;;2.29;77.68
4576;BME280;2300;51.874;8.430;2023-02-07T10:15:00;103285.97;;;2.43;77.01
4576;BME280;2300;51.874;8.430;2023-02-07T10:17:46;103292.56;;;2.63;76.08
4576;BME280;2300;51.874;8.430;2023-02-07T10:20:31;103290.97;;;2.71;75.53
4576;BME280;2300;51.874;8.430;2023-02-07T10:23:14;103295.69;;;2.81;75.53
4576;BME280;2300;51.874;8.430;2023-02-07T10:25:57;103293.81;;;2.81;75.22
4576;BME280;2300;51.874;8.430;2023-02-07T10:28:45;103293.72;;;2.83;73.55
4576;BME280;2300;51.874;8.430;2023-02-07T10:31:16;103293.00;;;2.92;74.21
4576;BME280;2300;51.874;8.430;2023-02-07T10:33:47;103290.06;;;2.95;75.42
4576;BME280;2300;51.874;8.430;2023-02-07T10:36:16;103288.44;;;2.92;74.20
4576;BME280;2300;51.874;8.430;2023-02-07T10:38:48;103292.03;;;3.04;74.29
4576;BME280;2300;51.874;8.430;2023-02-07T10:41:21;103291.09;;;3.16;74.05
4576;BME280;2300;51.874;8.430;2023-02-07T10:43:51;103293.78;;;3.27;73.48
4576;BME280;2300;51.874;8.430;2023-02-07T10:46:20;103296.00;;;3.44;73.53
4576;BME280;2300;51.874;8.430;2023-02-07T10:48:47;103293.06;;;3.47;73.10
4576;BME280;2300;51.874;8.430;2023-02-07T10:51:21;103280.97;;;3.51;71.49
4576;BME280;2300;51.874;8.430;2023-02-07T10:54:00;103292.81;;;3.61;73.03
4576;BME280;2300;51.874;8.430;2023-02-07T10:56:27;103291.06;;;3.60;71.85
4576;BME280;2300;51.874;8.430;2023-02-07T10:58:55;103287.38;;;3.61;71.76
4576;BME280;2300;51.874;8.430;2023-02-07T11:01:24;103281.19;;;3.59;72.09
4576;BME280;2300;51.874;8.430;2023-02-07T11:03:52;103283.63;;;3.85;71.83
4576;BME280;2300;51.874;8.430;2023-02-07T11:06:25;103284.16;;;3.56;70.68
4576;BME280;2300;51.874;8.430;2023-02-07T11:09:09;103269.06;;;3.63;71.69
4576;BME280;2300;51.874;8.430;2023-02-07T11:11:36;103269.09;;;3.52;70.89
4576;BME280;2300;51.874;8.430;2023-02-07T11:14:05;103274.25;;;3.78;70.86
4576;BME280;2300;51.874;8.430;2023-02-07T11:16:33;103263.50;;;3.76;70.45
4576;BME280;2300;51.874;8.430;2023-02-07T11:19:02;103267.66;;;3.91;70.25
4576;BME280;2300;51.874;8.430;2023-02-07T11:21:34;103265.78;;;4.03;70.06
4576;BME280;2300;51.874;8.430;2023-02-07T11:24:05;103267.69;;;4.23;69.86
4576;BME280;2300;51.874;8.430;2023-02-07T11:26:34;103268.25;;;4.49;69.24
4576;BME280;2300;51.874;8.430;2023-02-07T11:29:11;103265.66;;;4.36;67.67
4576;BME280;2300;51.874;8.430;2023-02-07T11:31:39;103252.44;;;4.43;66.68
4576;BME280;2300;51.874;8.430;2023-02-07T11:34:10;103254.50;;;4.51;68.25
4576;BME280;2300;51.874;8.430;2023-02-07T11:36:47;103255.53;;;4.38;67.50
4576;BME280;2300;51.874;8.430;2023-02-07T11:39:15;103247.84;;;4.43;68.08
4576;BME280;2300;51.874;8.430;2023-02-07T11:41:52;103250.59;;;4.32;67.61
4576;BME280;2300;51.874;8.430;2023-02-07T11:44:23;103250.97;;;4.39;67.42
4576;BME280;2300;51.874;8.430;2023-02-07T11:46:52;103249.13;;;4.28;67.09
4576;BME280;2300;51.874;8.430;2023-02-07T11:49:23;103256.09;;;4.53;67.19
4576;BME280;2300;51.874;8.430;2023-02-07T11:51:53;103244.59;;;4.50;66.88
4576;BME280;2300;51.874;8.430;2023-02-07T11:54:21;103236.09;;;4.43;66.90
4576;BME280;2300;51.874;8.430;2023-02-07T11:56:49;103237.09;;;4.31;67.09
4576;BME280;2300;51.874;8.430;2023-02-07T11:59:20;103242.53;;;4.63;66.97
4576;BME280;2300;51.874;8.430;2023-02-07T12:01:48;103242.53;;;4.63;66.15
4576;BME280;2300;51.874;8.430;2023-02-07T12:04:17;103243.06;;;4.57;66.53
4576;BME280;2300;51.874;8.430;2023-02-07T12:06:47;103229.41;;;4.47;66.07
4576;BME280;2300;51.874;8.430;2023-02-07T12:09:27;103250.94;;;4.71;65.41
4576;BME280;2300;51.874;8.430;2023-02-07T12:11:56;103241.56;;;4.64;65.12
4576;BME280;2300;51.874;8.430;2023-02-07T12:14:31;103239.88;;;4.52;65.65
4576;BME280;2300;51.874;8.430;2023-02-07T12:17:00;103235.13;;;4.65;64.02
4576;BME280;2300;51.874;8.430;2023-02-07T12:19:32;103236.16;;;4.53;63.37
4576;BME280;2300;51.874;8.430;2023-02-07T12:22:03;103229.41;;;4.47;64.13
4576;BME280;2300;51.874;8.430;2023-02-07T12:24:35;103228.06;;;4.41;64.11
4576;BME280;2300;51.874;8.430;2023-02-07T12:27:08;103225.00;;;4.35;64.20
4576;BME280;2300;51.874;8.430;2023-02-07T12:29:48;103221.41;;;4.34;65.00
4576;BME280;2300;51.874;8.430;2023-02-07T12:32:20;103219.09;;;4.30;65.74
4576;BME280;2300;51.874;8.430;2023-02-07T12:34:54;103218.81;;;4.33;65.37
4576;BME280;2300;51.874;8.430;2023-02-07T12:37:25;103225.50;;;4.40;64.60
4576;BME280;2300;51.874;8.430;2023-02-07T12:39:59;103228.22;;;4.61;63.96
4576;BME280;2300;51.874;8.430;2023-02-07T12:42:32;103227.00;;;4.54;64.88
4576;BME280;2300;51.874;8.430;2023-02-07T12:45:04;103225.03;;;4.56;64.68
4576;BME280;2300;51.874;8.430;2023-02-07T12:47:47;103230.00;;;4.51;60.43
4576;BME280;2300;51.874;8.430;2023-02-07T12:50:33;103213.41;;;4.54;61.09
4576;BME280;2300;51.874;8.430;2023-02-07T12:53:16;103218.44;;;4.58;61.76
4576;BME280;2300;51.874;8.430;2023-02-07T12:55:51;103211.34;;;4.67;59.92
4576;BME280;2300;51.874;8.430;2023-02-07T12:58:30;103206.09;;;4.75;60.17
4576;BME280;2300;51.874;8.430;2023-02-07T13:01:06;103211.66;;;4.73;57.98
4576;BME280;2300;51.874;8.430;2023-02-07T13:03:48;103203.97;;;4.58;58.32
4576;BME280;2300;51.874;8.430;2023-02-07T13:06:27;103193.69;;;4.40;59.79
4576;BME280;2300;51.874;8.430;2023-02-07T13:09:00;103209.34;;;4.69;58.76
4576;BME280;2300;51.874;8.430;2023-02-07T13:11:37;103211.41;;;4.76;60.75
4576;BME280;2300;51.874;8.430;2023-02-07T13:14:17;103204.56;;;4.82;60.91
4576;BME280;2300;51.874;8.430;2023-02-07T13:16:57;103203.38;;;4.75;57.81
4576;BME280;2300;51.874;8.430;2023-02-07T13:19:34;103201.56;;;4.85;60.32
4576;BME280;2300;51.874;8.430;2023-02-07T13:22:06;103205.75;;;4.89;59.21
4576;BME280;2300;51.874;8.430;2023-02-07T13:24:37;103204.00;;;4.88;59.71
4576;BME280;2300;51.874;8.430;2023-02-07T13:27:12;103201.44;;;4.86;58.00
4576;BME280;2300;51.874;8.430;2023-02-07T13:29:43;103195.38;;;4.83;58.05
4576;BME280;2300;51.874;8.430;2023-02-07T13:32:13;103198.56;;;4.88;59.92